sensor_id;sensor_type;location;lat;lon;timestamp;pressure;altitude;pressure_sealevel;temperature;humidity
37648;BME280;23490;53.656;10.076;2023-04-08T00:01:38;99248.66;;;-145.95;100.00
37648;BME280;23490;53.656;10.076;2023-04-08T00:04:04;99240.41;;;-145.95;100.00
37648;BME280;23490;53.656;10.076;2023-04-08T00:06:29;99246.59;;;-145.95;100.00
37648;BME280;23490;53.656;10.076;2023-04-08T00:08:57;99207.38;;;-145.95;100.00
37648;BME280;23490;53.656;10.076;2023-04-08T00:11:22;99197.03;;;-145.95;100.00
37648;BME280;23490;53.656;10.076;2023-04-08T00:13:47;99211.50;;;-145.95;100.00
37648;BME280;23490;53.656;10.076;2023-04-08T00:16:12;99228.00;;;-145.95;100.00
37648;BME280;23490;53.656;10.076;2023-04-08T00:18:38;99232.16;;;-145.95;100.00
37648;BME280;23490;53.656;10.076;2023-04-08T00:21:03;99207.38;;;-145.95;100.00
37648;BME280;23490;53.656;10.076;2023-04-08T00:23:29;99230.06;;;-145.95;100.00
37648;BME280;23490;53.656;10.076;2023-04-08T00:25:54;99302.34;;;-145.95;100.00
37648;BME280;23490;53.656;10.076;2023-04-08T00:28:20;99194.97;;;-145.95;100.00
37648;BME280;23490;53.656;10.076;2023-04-08T00:30:46;99219.75;;;-145.95;100.00
37648;BME280;23490;53.656;10.076;2023-04-08T00:33:11;99215.63;;;-145.95;100.00
37648;BME280;23490;53.656;10.076;2023-04-08T00:35:37;99223.88;;;-145.95;100.00
37648;BME280;23490;53.656;10.076;2023-04-08T00:38:02;99240.41;;;-145.95;100.00
37648;BME280;23490;53.656;10.076;2023-04-08T00:40:28;99252.78;;;-145.95;100.00
37648;BME280;23490;53.656;10.076;2023-04-08T00:42:56;99254.84;;;-145.95;100.00
37648;BME280;23490;53.656;10.076;2023-04-08T00:45:22;99240.41;;;-145.95;100.00
37648;BME280;23490;53.656;10.076;2023-04-08T00:47:47;99259.00;;;-145.95;100.00
37648;BME280;23490;53.656;10.076;2023-04-08T00:50:17;99261.06;;;-145.95;100.00
37648;BME280;23490;53.656;10.076;2023-04-08T00:52:42;99312.69;;;-145.95;100.00
37648;BME280;23490;53.656;10.076;2023-04-08T00:55:08;99244.53;;;-145.95;100.00
37648;BME280;23490;53.656;10.076;2023-04-08T00:57:33;99236.28;;;-145.95;100.00
37648;BME280;23490;53.656;10.076;2023-04-08T00:59:59;99265.19;;;-145.95;100.00
37648;BME280;23490;53.656;10.076;2023-04-08T01:05:06;99261.06;;;-145.95;100.00
37648;BME280;23490;53.656;10.076;2023-04-08T01:07:48;99248.66;;;-145.95;100.00
37648;BME280;23490;53.656;10.076;2023-04-08T01:10:20;99289.97;;;-145.95;100.00
37648;BME280;23490;53.656;10.076;2023-04-08T01:12:51;99209.44;;;-145.95;100.00
37648;BME280;23490;53.656;10.076;2023-04-08T01:15:18;99267.25;;;-145.95;100.00
37648;BME280;23490;53.656;10.076;2023-04-08T01:17:44;99285.84;;;-145.95;100.00
37648;BME280;23490;53.656;10.076;2023-04-08T01:20:12;99261.06;;;-145.95;100.00
37648;BME280;23490;53.656;10.076;2023-04-08T01:22:54;99256.94;;;-145.95;100.00
37648;BME280;23490;53.656;10.076;2023-04-08T01:25:36;99277.56;;;-145.95;100.00
37648;BME280;23490;53.656;10.076;2023-04-08T01:28:14;99277.56;;;-145.95;100.00
37648;BME280;23490;53.656;10.076;2023-04-08T01:30:41;99232.16;;;-145.95;100.00
37648;BME280;23490;53.656;10.076;2023-04-08T01:33:11;99296.16;;;-145.95;100.00
37648;BME280;23490;53.656;10.076;2023-04-08T01:35:39;99275.50;;;-145.95;100.00
37648;BME280;23490;53.656;10.076;2023-04-08T01:38:06;99261.06;;;-145.95;100.00
37648;BME280;23490;53.656;10.076;2023-04-08T01:40:34;99250.72;;;-145.95;100.00
37648;BME280;23490;53.656;10.076;2023-04-08T01:43:00;99306.50;;;-145.95;100.00
37648;BME280;23490;53.656;10.076;2023-04-08T01:45:27;99285.84;;;-145.95;100.00
37648;BME280;23490;53.656;10.076;2023-04-08T01:47:55;99261.06;;;-145.95;100.00
37648;BME280;23490;53.656;10.076;2023-04-08T01:50:22;99277.56;;;-145.95;100.00
37648;BME280;23490;53.656;10.076;2023-04-08T01:52:50;99256.94;;;-145.95;100.00
37648;BME280;23490;53.656;10.076;2023-04-08T01:55:18;99261.06;;;-145.95;100.00
37648;BME280;23490;53.656;10.076;2023-04-08T01:57:53;99320.94;;;-145.95;100.00
37648;BME280;23490;53.656;10.076;2023-04-08T02:00:24;99213.56;;;-145.95;100.00
37648;BME280;23490;53.656;10.076;2023-04-08T02:02:51;99256.94;;;-145.95;100.00
37648;BME280;23490;53.656;10.076;2023-04-08T02:05:18;99306.50;;;-145.95;100.00
37648;BME280;23490;53.656;10.076;2023-04-08T02:07:43;99289.97;;;-145.95;100.00
37648;BME280;23490;53.656;10.076;2023-04-08T02:10:11;99277.56;;;-145.95;100.00
37648;BME280;23490;53.656;10.076;2023-04-08T02:12:36;99318.88;;;-145.95;100.00
37648;BME280;23490;53.656;10.076;2023-04-08T02:15:02;99298.22;;;-145.95;100.00
37648;BME280;23490;53.656;10.076;2023-04-08T02:17:33;99298.22;;;-145.95;100.00
37648;BME280;23490;53.656;10.076;2023-04-08T02:22:40;99252.78;;;-145.95;100.00
37648;BME280;23490;53.656;10.076;2023-04-08T02:25:10;99232.16;;;-145.95;100.00
37648;BME280;23490;53.656;10.076;2023-04-08T02:27:38;99242.47;;;-145.95;100.00
37648;BME280;23490;53.656;10.076;2023-04-08T02:30:05;99244.53;;;-145.95;100.00
37648;BME280;23490;53.656;10.076;2023-04-08T02:32:35;99298.22;;;-145.95;100.00
37648;BME280;23490;53.656;10.076;2023-04-08T02:35:01;99275.50;;;-145.95;100.00
37648;BME280;23490;53.656;10.076;2023-04-08T02:37:28;99267.25;;;-145.95;100.00
37648;BME280;23490;53.656;10.076;2023-04-08T02:39:54;99296.16;;;-145.95;100.00
37648;BME280;23490;53.656;10.076;2023-04-08T02:42:21;99269.31;;;-145.95;100.00
37648;BME280;23490;53.656;10.076;2023-04-08T02:44:46;99281.72;;;-145.95;100.00
37648;BME280;23490;53.656;10.076;2023-04-08T02:47:11;99304.41;;;-145.95;100.00
37648;BME280;23490;53.656;10.076;2023-04-08T02:49:37;99294.09;;;-145.95;100.00
37648;BME280;23490;53.656;10.076;2023-04-08T02:52:03;99343.66;;;-145.95;100.00
37648;BME280;23490;53.656;10.076;2023-04-08T02:54:28;99318.88;;;-145.95;100.00
37648;BME280;23490;53.656;10.076;2023-04-08T02:56:54;99294.09;;;-145.95;100.00
37648;BME280;23490;53.656;10.076;2023-04-08T02:59:20;99281.72;;;-145.95;100.00
37648;BME280;23490;53.656;10.076;2023-04-08T03:01:45;99310.63;;;-145.95;100.00
37648;BME280;23490;53.656;10.076;2023-04-08T03:04:10;99318.88;;;-145.95;100.00
37648;BME280;23490;53.656;10.076;2023-04-08T03:06:36;99283.78;;;-145.95;100.00
37648;BME280;23490;53.656;10.076;2023-04-08T03:09:01;99302.34;;;-145.95;100.00
37648;BME280;23490;53.656;10.076;2023-04-08T03:11:26;99327.13;;;-145.95;100.00
37648;BME280;23490;53.656;10.076;2023-04-08T03:13:52;99261.06;;;-145.95;100.00
37648;BME280;23490;53.656;10.076;2023-04-08T03:16:17;99310.63;;;-145.95;100.00
37648;BME280;23490;53.656;10.076;2023-04-08T03:18:43;99310.63;;;-145.95;100.00
37648;BME280;23490;53.656;10.076;2023-04-08T03:21:08;99306.50;;;-145.95;100.00
37648;BME280;23490;53.656;10.076;2023-04-08T03:23:33;99329.19;;;-145.95;100.00
37648;BME280;23490;53.656;10.076;2023-04-08T03:25:58;99316.81;;;-145.95;100.00
37648;BME280;23490;53.656;10.076;2023-04-08T03:28:24;99310.63;;;-145.95;100.00
37648;BME280;23490;53.656;10.076;2023-04-08T03:30:49;99327.13;;;-145.95;100.00
37648;BME280;23490;53.656;10.076;2023-04-08T03:33:15;99298.22;;;-145.95;100.00
37648;BME280;23490;53.656;10.076;2023-04-08T03:35:40;99333.34;;;-145.95;100.00
37648;BME280;23490;53.656;10.076;2023-04-08T03:38:05;99327.13;;;-145.95;100.00
37648;BME280;23490;53.656;10.076;2023-04-08T03:40:31;99318.88;;;-145.95;100.00
37648;BME280;23490;53.656;10.076;2023-04-08T03:42:56;99316.81;;;-145.95;100.00
37648;BME280;23490;53.656;10.076;2023-04-08T03:45:21;99318.88;;;-145.95;100.00
37648;BME280;23490;53.656;10.076;2023-04-08T03:47:47;99335.41;;;-145.95;100.00
37648;BME280;23490;53.656;10.076;2023-04-08T03:50:12;99347.78;;;-145.95;100.00
37648;BME280;23490;53.656;10.076;2023-04-08T03:52:37;99323.00;;;-145.95;100.00
37648;BME280;23490;53.656;10.076;2023-04-08T03:55:03;99310.63;;;-145.95;100.00
37648;BME280;23490;53.656;10.076;2023-04-08T03:57:28;99306.50;;;-145.95;100.00
37648;BME280;23490;53.656;10.076;2023-04-08T03:59:54;99323.00;;;-145.95;100.00
37648;BME280;23490;53.656;10.076;2023-04-08T04:02:19;99331.28;;;-145.95;100.00
37648;BME280;23490;53.656;10.076;2023-04-08T04:04:44;99310.63;;;-145.95;100.00
37648;BME280;23490;53.656;10.076;2023-04-08T04:07:10;99314.75;;;-145.95;100.00
37648;BME280;23490;53.656;10.076;2023-04-08T04:09:35;99370.50;;;-145.95;100.00
37648;BME280;23490;53.656;10.076;2023-04-08T04:12:02;99345.72;;;-145.95;100.00
37648;BME280;23490;53.656;10.076;2023-04-08T04:14:27;99364.31;;;-145.95;100.00
37648;BME280;23490;53.656;10.076;2023-04-08T04:16:53;99323.00;;;-145.95;100.00
37648;BME280;23490;53.656;10.076;2023-04-08T04:19:18;99318.88;;;-145.95;100.00
37648;BME280;23490;53.656;10.076;2023-04-08T04:21:43;99323.00;;;-145.95;100.00
37648;BME280;23490;53.656;10.076;2023-04-08T04:24:09;99306.50;;;-145.95;100.00
37648;BME280;23490;53.656;10.076;2023-04-08T04:26:35;99347.78;;;-145.95;100.00
37648;BME280;23490;53.656;10.076;2023-04-08T04:29:01;99331.28;;;-145.95;100.00
37648;BME280;23490;53.656;10.076;2023-04-08T04:31:26;99339.53;;;-145.95;100.00
37648;BME280;23490;53.656;10.076;2023-04-08T04:33:53;99347.78;;;-145.95;100.00
37648;BME280;23490;53.656;10.076;2023-04-08T04:36:18;99323.00;;;-145.95;100.00
37648;BME280;23490;53.656;10.076;2023-04-08T04:38:44;99318.88;;;-145.95;100.00
37648;BME280;23490;53.656;10.076;2023-04-08T04:41:10;99327.13;;;-145.95;100.00
37648;BME280;23490;53.656;10.076;2023-04-08T04:43:35;99335.41;;;-145.95;100.00
37648;BME280;23490;53.656;10.076;2023-04-08T04:46:02;99300.28;;;-145.95;100.00
37648;BME280;23490;53.656;10.076;2023-04-08T04:48:31;99380.84;;;-145.95;100.00
37648;BME280;23490;53.656;10.076;2023-04-08T04:50:58;99325.06;;;-145.95;100.00
37648;BME280;23490;53.656;10.076;2023-04-08T04:53:24;99327.13;;;-145.95;100.00
37648;BME280;23490;53.656;10.076;2023-04-08T04:55:50;99302.34;;;-145.95;100.00
37648;BME280;23490;53.656;10.076;2023-04-08T04:58:16;99281.72;;;-145.95;100.00
37648;BME280;23490;53.656;10.076;2023-04-08T05:00:41;99314.75;;;-145.95;100.00
37648;BME280;23490;53.656;10.076;2023-04-08T05:03:07;99283.78;;;-145.95;100.00
37648;BME280;23490;53.656;10.076;2023-04-08T05:05:32;99339.53;;;-145.95;100.00
37648;BME280;23490;53.656;10.076;2023-04-08T05:07:57;99306.50;;;-145.95;100.00
37648;BME280;23490;53.656;10.076;2023-04-08T05:10:23;99327.13;;;-145.95;100.00
37648;BME280;23490;53.656;10.076;2023-04-08T05:12:48;99302.34;;;-145.95;100.00
37648;BME280;23490;53.656;10.076;2023-04-08T05:15:14;99339.53;;;-145.95;100.00
37648;BME280;23490;53.656;10.076;2023-04-08T05:17:40;99294.09;;;-145.95;100.00
37648;BME280;23490;53.656;10.076;2023-04-08T05:20:05;99329.19;;;-145.95;100.00
37648;BME280;23490;53.656;10.076;2023-04-08T05:22:31;99269.31;;;-145.95;100.00
37648;BME280;23490;53.656;10.076;2023-04-08T05:24:56;99306.50;;;-145.95;100.00
37648;BME280;23490;53.656;10.076;2023-04-08T05:27:21;99331.28;;;-145.95;100.00
37648;BME280;23490;53.656;10.076;2023-04-08T05:29:48;99331.28;;;-145.95;100.00
37648;BME280;23490;53.656;10.076;2023-04-08T05:32:14;99331.28;;;-145.95;100.00
37648;BME280;23490;53.656;10.076;2023-04-08T05:34:41;99323.00;;;-145.95;100.00
37648;BME280;23490;53.656;10.076;2023-04-08T05:37:06;99370.50;;;-145.95;100.00
37648;BME280;23490;53.656;10.076;2023-04-08T05:39:31;99308.56;;;-145.95;100.00
37648;BME280;23490;53.656;10.076;2023-04-08T05:41:57;99370.50;;;-145.95;100.00
37648;BME280;23490;53.656;10.076;2023-04-08T05:44:22;99347.78;;;-145.95;100.00
37648;BME280;23490;53.656;10.076;2023-04-08T05:46:47;99343.66;;;-145.95;100.00
37648;BME280;23490;53.656;10.076;2023-04-08T05:49:13;99341.59;;;-145.95;100.00
37648;BME280;23490;53.656;10.076;2023-04-08T05:51:38;99341.59;;;-145.95;100.00
37648;BME280;23490;53.656;10.076;2023-04-08T05:54:04;99327.13;;;-145.95;100.00
37648;BME280;23490;53.656;10.076;2023-04-08T05:56:29;99364.31;;;-145.95;100.00
37648;BME280;23490;53.656;10.076;2023-04-08T05:58:56;99318.88;;;-145.95;100.00
37648;BME280;23490;53.656;10.076;2023-04-08T06:01:22;99343.66;;;-145.95;100.00
37648;BME280;23490;53.656;10.076;2023-04-08T06:03:47;99308.56;;;-145.95;100.00
37648;BME280;23490;53.656;10.076;2023-04-08T06:06:12;99331.28;;;-145.95;100.00
37648;BME280;23490;53.656;10.076;2023-04-08T06:08:38;99356.06;;;-145.95;100.00
37648;BME280;23490;53.656;10.076;2023-04-08T06:11:03;99304.41;;;-145.95;100.00
37648;BME280;23490;53.656;10.076;2023-04-08T06:13:30;99339.53;;;-145.95;100.00
37648;BME280;23490;53.656;10.076;2023-04-08T06:15:55;99310.63;;;-145.95;100.00
37648;BME280;23490;53.656;10.076;2023-04-08T06:18:21;99314.75;;;-145.95;100.00
37648;BME280;23490;53.656;10.076;2023-04-08T06:20:46;99343.66;;;-145.95;100.00
37648;BME280;23490;53.656;10.076;2023-04-08T06:23:12;99356.06;;;-145.95;100.00
37648;BME280;23490;53.656;10.076;2023-04-08T06:25:37;99343.66;;;-145.95;100.00
37648;BME280;23490;53.656;10.076;2023-04-08T06:28:03;99304.41;;;-145.95;100.00
37648;BME280;23490;53.656;10.076;2023-04-08T06:30:28;99323.00;;;-145.95;100.00
37648;BME280;23490;53.656;10.076;2023-04-08T06:32:53;99329.19;;;-145.95;100.00
37648;BME280;23490;53.656;10.076;2023-04-08T06:35:19;99376.69;;;-145.95;100.00
37648;BME280;23490;53.656;10.076;2023-04-08T06:37:44;99343.66;;;-145.95;100.00
37648;BME280;23490;53.656;10.076;2023-04-08T06:40:10;99306.50;;;-145.95;100.00
37648;BME280;23490;53.656;10.076;2023-04-08T06:42:35;99343.66;;;-145.95;100.00
37648;BME280;23490;53.656;10.076;2023-04-08T06:45:03;99351.91;;;-145.95;100.00
37648;BME280;23490;53.656;10.076;2023-04-08T06:47:29;99378.78;;;-145.95;100.00
37648;BME280;23490;53.656;10.076;2023-04-08T06:49:54;99343.66;;;-145.95;100.00
37648;BME280;23490;53.656;10.076;2023-04-08T06:52:20;99351.91;;;-145.95;100.00
37648;BME280;23490;53.656;10.076;2023-04-08T06:54:45;99306.50;;;-145.95;100.00
37648;BME280;23490;53.656;10.076;2023-04-08T06:57:11;99310.63;;;-145.95;100.00
37648;BME280;23490;53.656;10.076;2023-04-08T06:59:36;99351.91;;;-145.95;100.00
37648;BME280;23490;53.656;10.076;2023-04-08T07:02:01;99343.66;;;-145.95;100.00
37648;BME280;23490;53.656;10.076;2023-04-08T07:04:27;99347.78;;;-145.95;100.00
37648;BME280;23490;53.656;10.076;2023-04-08T07:06:52;99376.69;;;-145.95;100.00
37648;BME280;23490;53.656;10.076;2023-04-08T07:09:18;99362.25;;;-145.95;100.00
37648;BME280;23490;53.656;10.076;2023-04-08T07:11:43;99318.88;;;-145.95;100.00
37648;BME280;23490;53.656;10.076;2023-04-08T07:14:08;99339.53;;;-145.95;100.00
37648;BME280;23490;53.656;10.076;2023-04-08T07:16:34;99331.28;;;-145.95;100.00
37648;BME280;23490;53.656;10.076;2023-04-08T07:18:59;99339.53;;;-145.95;100.00
37648;BME280;23490;53.656;10.076;2023-04-08T07:21:26;99335.41;;;-145.95;100.00
37648;BME280;23490;53.656;10.076;2023-04-08T07:23:51;99362.25;;;-145.95;100.00
37648;BME280;23490;53.656;10.076;2023-04-08T07:26:16;99318.88;;;-145.95;100.00
37648;BME280;23490;53.656;10.076;2023-04-08T07:28:42;99310.63;;;-145.95;100.00
37648;BME280;23490;53.656;10.076;2023-04-08T07:31:13;99335.41;;;-145.95;100.00
37648;BME280;23490;53.656;10.076;2023-04-08T07:33:39;99356.06;;;-145.95;100.00
37648;BME280;23490;53.656;10.076;2023-04-08T07:36:04;99351.91;;;-145.95;100.00
37648;BME280;23490;53.656;10.076;2023-04-08T07:38:30;99331.28;;;-145.95;100.00
37648;BME280;23490;53.656;10.076;2023-04-08T07:40:56;99337.47;;;-145.95;100.00
37648;BME280;23490;53.656;10.076;2023-04-08T07:43:21;99343.66;;;-145.95;100.00
37648;BME280;23490;53.656;10.076;2023-04-08T07:45:46;99285.84;;;-145.95;100.00
37648;BME280;23490;53.656;10.076;2023-04-08T07:48:12;99335.41;;;-145.95;100.00
37648;BME280;23490;53.656;10.076;2023-04-08T07:50:37;99358.13;;;-145.95;100.00
37648;BME280;23490;53.656;10.076;2023-04-08T07:53:03;99351.91;;;-145.95;100.00
37648;BME280;23490;53.656;10.076;2023-04-08T07:55:36;99310.63;;;-145.95;100.00
37648;BME280;23490;53.656;10.076;2023-04-08T07:58:01;99323.00;;;-145.95;100.00
37648;BME280;23490;53.656;10.076;2023-04-08T08:00:27;99356.06;;;-145.95;100.00
37648;BME280;23490;53.656;10.076;2023-04-08T08:02:54;99302.34;;;-145.95;100.00
37648;BME280;23490;53.656;10.076;2023-04-08T08:05:20;99320.94;;;-145.95;100.00
37648;BME280;23490;53.656;10.076;2023-04-08T08:07:45;99327.13;;;-145.95;100.00
37648;BME280;23490;53.656;10.076;2023-04-08T08:10:10;99294.09;;;-145.95;100.00
37648;BME280;23490;53.656;10.076;2023-04-08T08:12:36;99347.78;;;-145.95;100.00
37648;BME280;23490;53.656;10.076;2023-04-08T08:15:02;99298.22;;;-145.95;100.00
37648;BME280;23490;53.656;10.076;2023-04-08T08:17:27;99296.16;;;-145.95;100.00
37648;BME280;23490;53.656;10.076;2023-04-08T08:19:55;99314.75;;;-145.95;100.00
37648;BME280;23490;53.656;10.076;2023-04-08T08:22:21;99368.44;;;-145.95;100.00
37648;BME280;23490;53.656;10.076;2023-04-08T08:24:46;99345.72;;;-145.95;100.00
37648;BME280;23490;53.656;10.076;2023-04-08T08:27:11;99323.00;;;-145.95;100.00
37648;BME280;23490;53.656;10.076;2023-04-08T08:29:37;99302.34;;;-145.95;100.00
37648;BME280;23490;53.656;10.076;2023-04-08T08:32:03;99308.56;;;-145.95;100.00
37648;BME280;23490;53.656;10.076;2023-04-08T08:34:28;99323.00;;;-145.95;100.00
37648;BME280;23490;53.656;10.076;2023-04-08T08:36:54;99310.63;;;-145.95;100.00
37648;BME280;23490;53.656;10.076;2023-04-08T08:39:20;99261.06;;;-145.95;100.00
37648;BME280;23490;53.656;10.076;2023-04-08T08:41:45;99279.63;;;-145.95;100.00
37648;BME280;23490;53.656;10.076;2023-04-08T08:44:12;99259.00;;;-145.95;100.00
37648;BME280;23490;53.656;10.076;2023-04-08T08:46:42;99273.44;;;-145.95;100.00
37648;BME280;23490;53.656;10.076;2023-04-08T08:49:08;99287.91;;;-145.95;100.00
37648;BME280;23490;53.656;10.076;2023-04-08T08:51:33;99285.84;;;-145.95;100.00
37648;BME280;23490;53.656;10.076;2023-04-08T08:54:03;99271.38;;;-145.95;100.00
37648;BME280;23490;53.656;10.076;2023-04-08T08:56:28;99236.28;;;-145.95;100.00
37648;BME280;23490;53.656;10.076;2023-04-08T08:58:54;99263.13;;;-145.95;100.00
37648;BME280;23490;53.656;10.076;2023-04-08T09:01:37;99289.97;;;-145.95;100.00
37648;BME280;23490;53.656;10.076;2023-04-08T09:06:36;99261.06;;;-145.95;100.00
37648;BME280;23490;53.656;10.076;2023-04-08T09:09:02;99273.44;;;-145.95;100.00
37648;BME280;23490;53.656;10.076;2023-04-08T09:11:34;99236.28;;;-145.95;100.00
37648;BME280;23490;53.656;10.076;2023-04-08T09:13:59;99254.84;;;-145.95;100.00
37648;BME280;23490;53.656;10.076;2023-04-08T09:16:25;99256.94;;;-145.95;100.00
37648;BME280;23490;53.656;10.076;2023-04-08T09:18:53;99223.88;;;-145.95;100.00
37648;BME280;23490;53.656;10.076;2023-04-08T09:21:21;99252.78;;;-145.95;100.00
37648;BME280;23490;53.656;10.076;2023-04-08T09:23:51;99240.41;;;-145.95;100.00
37648;BME280;23490;53.656;10.076;2023-04-08T09:26:18;99261.06;;;-145.95;100.00
37648;BME280;23490;53.656;10.076;2023-04-08T09:28:59;99248.66;;;-145.95;100.00
37648;BME280;23490;53.656;10.076;2023-04-08T09:31:30;99215.63;;;-145.95;100.00
37648;BME280;23490;53.656;10.076;2023-04-08T09:34:16;99248.66;;;-145.95;100.00
37648;BME280;23490;53.656;10.076;2023-04-08T09:36:43;99248.66;;;-145.95;100.00
37648;BME280;23490;53.656;10.076;2023-04-08T09:39:09;99256.94;;;-145.95;100.00
37648;BME280;23490;53.656;10.076;2023-04-08T09:41:36;99207.38;;;-145.95;100.00
37648;BME280;23490;53.656;10.076;2023-04-08T09:44:04;99238.34;;;-145.95;100.00
37648;BME280;23490;53.656;10.076;2023-04-08T09:52:10;99228.00;;;-145.95;100.00
37648;BME280;23490;53.656;10.076;2023-04-08T09:54:43;99215.63;;;-145.95;100.00
37648;BME280;23490;53.656;10.076;2023-04-08T09:57:26;99186.72;;;-145.95;100.00
37648;BME280;23490;53.656;10.076;2023-04-08T10:00:07;99259.00;;;-145.95;100.00
37648;BME280;23490;53.656;10.076;2023-04-08T10:02:44;99240.41;;;-145.95;100.00
37648;BME280;23490;53.656;10.076;2023-04-08T10:05:12;99203.22;;;-145.95;100.00
37648;BME280;23490;53.656;10.076;2023-04-08T10:07:38;99199.09;;;-145.95;100.00
37648;BME280;23490;53.656;10.076;2023-04-08T10:10:05;99242.47;;;-145.95;100.00
37648;BME280;23490;53.656;10.076;2023-04-08T10:12:32;99236.28;;;-145.95;100.00
37648;BME280;23490;53.656;10.076;2023-04-08T10:17:49;99219.75;;;-145.95;100.00
37648;BME280;23490;53.656;10.076;2023-04-08T10:23:13;99215.63;;;-145.95;100.00
37648;BME280;23490;53.656;10.076;2023-04-08T10:25:42;99211.50;;;-145.95;100.00
37648;BME280;23490;53.656;10.076;2023-04-08T10:33:09;99265.19;;;-145.95;100.00
37648;BME280;23490;53.656;10.076;2023-04-08T10:35:35;99248.66;;;-145.95;100.00
37648;BME280;23490;53.656;10.076;2023-04-08T10:38:01;99252.78;;;-145.95;100.00
37648;BME280;23490;53.656;10.076;2023-04-08T10:40:28;99219.75;;;-145.95;100.00
37648;BME280;23490;53.656;10.076;2023-04-08T10:43:00;99228.00;;;-145.95;100.00
37648;BME280;23490;53.656;10.076;2023-04-08T10:45:25;99256.94;;;-145.95;100.00
37648;BME280;23490;53.656;10.076;2023-04-08T10:47:54;99277.56;;;-145.95;100.00
37648;BME280;23490;53.656;10.076;2023-04-08T10:50:19;99236.28;;;-145.95;100.00
37648;BME280;23490;53.656;10.076;2023-04-08T10:52:52;99219.75;;;-145.95;100.00
37648;BME280;23490;53.656;10.076;2023-04-08T10:55:26;99211.50;;;-145.95;100.00
37648;BME280;23490;53.656;10.076;2023-04-08T10:57:52;99265.19;;;-145.95;100.00
37648;BME280;23490;53.656;10.076;2023-04-08T11:00:18;99219.75;;;-145.95;100.00
37648;BME280;23490;53.656;10.076;2023-04-08T11:02:44;99248.66;;;-145.95;100.00
37648;BME280;23490;53.656;10.076;2023-04-08T11:05:10;99244.53;;;-145.95;100.00
37648;BME280;23490;53.656;10.076;2023-04-08T11:07:43;99219.75;;;-145.95;100.00
37648;BME280;23490;53.656;10.076;2023-04-08T11:10:10;99211.50;;;-145.95;100.00
37648;BME280;23490;53.656;10.076;2023-04-08T11:12:36;99273.44;;;-145.95;100.00
37648;BME280;23490;53.656;10.076;2023-04-08T11:15:03;99261.06;;;-145.95;100.00
37648;BME280;23490;53.656;10.076;2023-04-08T11:17:29;99267.25;;;-145.95;100.00
37648;BME280;23490;53.656;10.076;2023-04-08T11:19:56;99252.78;;;-145.95;100.00
37648;BME280;23490;53.656;10.076;2023-04-08T11:22:27;99240.41;;;-145.95;100.00
37648;BME280;23490;53.656;10.076;2023-04-08T11:24:54;99215.63;;;-145.95;100.00
37648;BME280;23490;53.656;10.076;2023-04-08T11:27:21;99240.41;;;-145.95;100.00
37648;BME280;23490;53.656;10.076;2023-04-08T11:29:50;99265.19;;;-145.95;100.00
37648;BME280;23490;53.656;10.076;2023-04-08T11:32:16;99217.69;;;-145.95;100.00
37648;BME280;23490;53.656;10.076;2023-04-08T11:34:41;99265.19;;;-145.95;100.00
37648;BME280;23490;53.656;10.076;2023-04-08T11:37:07;99186.72;;;-145.95;100.00
37648;BME280;23490;53.656;10.076;2023-04-08T11:39:32;99244.53;;;-145.95;100.00
37648;BME280;23490;53.656;10.076;2023-04-08T11:41:57;99199.09;;;-145.95;100.00
37648;BME280;23490;53.656;10.076;2023-04-08T11:44:30;99228.00;;;-145.95;100.00
37648;BME280;23490;53.656;10.076;2023-04-08T11:46:56;99240.41;;;-145.95;100.00
37648;BME280;23490;53.656;10.076;2023-04-08T11:49:22;99194.97;;;-145.95;100.00
37648;BME280;23490;53.656;10.076;2023-04-08T11:51:56;99228.00;;;-145.95;100.00
37648;BME280;23490;53.656;10.076;2023-04-08T11:54:33;99211.50;;;-145.95;100.00
37648;BME280;23490;53.656;10.076;2023-04-08T11:56:58;99213.56;;;-145.95;100.00
37648;BME280;23490;53.656;10.076;2023-04-08T11:59:24;99221.81;;;-145.95;100.00
37648;BME280;23490;53.656;10.076;2023-04-08T12:01:52;99199.09;;;-145.95;100.00
37648;BME280;23490;53.656;10.076;2023-04-08T12:04:18;99203.22;;;-145.95;100.00
37648;BME280;23490;53.656;10.076;2023-04-08T12:06:43;99223.88;;;-145.95;100.00
37648;BME280;23490;53.656;10.076;2023-04-08T12:09:14;99199.09;;;-145.95;100.00
37648;BME280;23490;53.656;10.076;2023-04-08T12:11:39;99228.00;;;-145.95;100.00
37648;BME280;23490;53.656;10.076;2023-04-08T12:14:05;99217.69;;;-145.95;100.00
37648;BME280;23490;53.656;10.076;2023-04-08T12:16:31;99194.97;;;-145.95;100.00
37648;BME280;23490;53.656;10.076;2023-04-08T12:18:57;99186.72;;;-145.95;100.00
37648;BME280;23490;53.656;10.076;2023-04-08T12:21:22;99157.81;;;-145.95;100.00
37648;BME280;23490;53.656;10.076;2023-04-08T12:23:47;99219.75;;;-145.95;100.00
37648;BME280;23490;53.656;10.076;2023-04-08T12:26:13;99215.63;;;-145.95;100.00
37648;BME280;23490;53.656;10.076;2023-04-08T12:28:38;99186.72;;;-145.95;100.00
37648;BME280;23490;53.656;10.076;2023-04-08T12:31:04;99219.75;;;-145.95;100.00
37648;BME280;23490;53.656;10.076;2023-04-08T12:33:30;99215.63;;;-145.95;100.00
37648;BME280;23490;53.656;10.076;2023-04-08T12:35:55;99211.50;;;-145.95;100.00
37648;BME280;23490;53.656;10.076;2023-04-08T12:38:22;99192.91;;;-145.95;100.00
37648;BME280;23490;53.656;10.076;2023-04-08T12:40:47;99201.16;;;-145.95;100.00
37648;BME280;23490;53.656;10.076;2023-04-08T12:43:13;99223.88;;;-145.95;100.00